sensor_id;sensor_type;location;lat;lon;timestamp;temperature;humidity
53653;DHT22;39553;52.954;5.932;2023-01-01T00:01:10;13.60;99.90
53653;DHT22;39553;52.954;5.932;2023-01-01T00:03:36;13.60;99.90
53653;DHT22;39553;52.954;5.932;2023-01-01T00:06:10;13.60;99.90
53653;DHT22;39553;52.954;5.932;2023-01-01T00:08:37;13.60;99.90
53653;DHT22;39553;52.954;5.932;2023-01-01T00:11:03;13.60;99.90
53653;DHT22;39553;52.954;5.932;2023-01-01T00:13:30;13.60;99.90
53653;DHT22;39553;52.954;5.932;2023-01-01T00:16:02;13.60;99.90
53653;DHT22;39553;52.954;5.932;2023-01-01T00:18:28;13.60;99.90
53653;DHT22;39553;52.954;5.932;2023-01-01T00:21:01;13.60;99.90
53653;DHT22;39553;52.954;5.932;2023-01-01T00:23:27;13.60;99.90
53653;DHT22;39553;52.954;5.932;2023-01-01T00:25:53;13.70;99.90
53653;DHT22;39553;52.954;5.932;2023-01-01T00:28:18;13.70;99.90
53653;DHT22;39553;52.954;5.932;2023-01-01T00:30:44;13.60;99.90
53653;DHT22;39553;52.954;5.932;2023-01-01T00:33:10;13.60;99.90
53653;DHT22;39553;52.954;5.932;2023-01-01T00:35:36;13.70;99.90
53653;DHT22;39553;52.954;5.932;2023-01-01T00:38:01;13.70;99.90
53653;DHT22;39553;52.954;5.932;2023-01-01T00:40:27;13.60;99.90
53653;DHT22;39553;52.954;5.932;2023-01-01T00:42:53;13.60;99.90
53653;DHT22;39553;52.954;5.932;2023-01-01T00:45:19;13.50;99.90
53653;DHT22;39553;52.954;5.932;2023-01-01T00:47:45;13.50;99.90
53653;DHT22;39553;52.954;5.932;2023-01-01T00:50:11;13.60;99.90
53653;DHT22;39553;52.954;5.932;2023-01-01T00:52:37;13.60;99.90
53653;DHT22;39553;52.954;5.932;2023-01-01T00:55:03;13.50;99.90
53653;DHT22;39553;52.954;5.932;2023-01-01T00:57:29;13.50;99.90
53653;DHT22;39553;52.954;5.932;2023-01-01T00:59:54;13.50;99.90
53653;DHT22;39553;52.954;5.932;2023-01-01T01:02:20;13.50;99.90
53653;DHT22;39553;52.954;5.932;2023-01-01T01:04:46;13.40;99.90
53653;DHT22;39553;52.954;5.932;2023-01-01T01:07:12;13.40;99.90
53653;DHT22;39553;52.954;5.932;2023-01-01T01:09:38;13.20;99.90
53653;DHT22;39553;52.954;5.932;2023-01-01T01:12:03;13.20;99.90
53653;DHT22;39553;52.954;5.932;2023-01-01T01:14:29;13.10;99.90
53653;DHT22;39553;52.954;5.932;2023-01-01T01:16:55;13.20;99.90
53653;DHT22;39553;52.954;5.932;2023-01-01T01:19:21;13.10;99.90
53653;DHT22;39553;52.954;5.932;2023-01-01T01:21:48;13.00;99.90
53653;DHT22;39553;52.954;5.932;2023-01-01T01:24:15;12.90;99.90
53653;DHT22;39553;52.954;5.932;2023-01-01T01:26:41;12.80;99.90
53653;DHT22;39553;52.954;5.932;2023-01-01T01:29:07;12.70;99.90
53653;DHT22;39553;52.954;5.932;2023-01-01T01:31:33;12.60;99.90
53653;DHT22;39553;52.954;5.932;2023-01-01T01:33:59;12.50;99.90
53653;DHT22;39553;52.954;5.932;2023-01-01T01:36:26;12.30;99.90
53653;DHT22;39553;52.954;5.932;2023-01-01T01:38:52;12.90;99.90
53653;DHT22;39553;52.954;5.932;2023-01-01T01:41:20;12.20;99.90
53653;DHT22;39553;52.954;5.932;2023-01-01T01:43:53;12.30;99.90
53653;DHT22;39553;52.954;5.932;2023-01-01T01:46:32;12.30;99.90
53653;DHT22;39553;52.954;5.932;2023-01-01T01:49:09;12.30;99.90
53653;DHT22;39553;52.954;5.932;2023-01-01T01:51:39;12.30;99.90
53653;DHT22;39553;52.954;5.932;2023-01-01T01:54:12;12.30;99.90
53653;DHT22;39553;52.954;5.932;2023-01-01T01:56:54;12.30;99.90
53653;DHT22;39553;52.954;5.932;2023-01-01T01:59:24;12.30;99.90
53653;DHT22;39553;52.954;5.932;2023-01-01T02:01:51;12.40;99.90
53653;DHT22;39553;52.954;5.932;2023-01-01T02:04:17;12.40;99.90
53653;DHT22;39553;52.954;5.932;2023-01-01T02:06:44;12.50;99.90
53653;DHT22;39553;52.954;5.932;2023-01-01T02:09:10;12.60;99.90
53653;DHT22;39553;52.954;5.932;2023-01-01T02:11:36;12.60;99.90
53653;DHT22;39553;52.954;5.932;2023-01-01T02:14:03;12.70;99.90
53653;DHT22;39553;52.954;5.932;2023-01-01T02:16:36;12.70;99.90
53653;DHT22;39553;52.954;5.932;2023-01-01T02:19:28;12.80;99.90
53653;DHT22;39553;52.954;5.932;2023-01-01T02:30:06;12.80;99.90
53653;DHT22;39553;52.954;5.932;2023-01-01T02:32:42;12.70;99.90
53653;DHT22;39553;52.954;5.932;2023-01-01T02:35:26;12.70;99.90
53653;DHT22;39553;52.954;5.932;2023-01-01T02:38:26;12.70;99.90
53653;DHT22;39553;52.954;5.932;2023-01-01T02:41:14;12.70;99.90
53653;DHT22;39553;52.954;5.932;2023-01-01T02:43:44;12.80;99.90
53653;DHT22;39553;52.954;5.932;2023-01-01T02:46:11;12.90;99.90
53653;DHT22;39553;52.954;5.932;2023-01-01T02:48:42;12.90;99.90
53653;DHT22;39553;52.954;5.932;2023-01-01T03:14:21;12.60;99.90
53653;DHT22;39553;52.954;5.932;2023-01-01T03:16:55;12.00;99.90
53653;DHT22;39553;52.954;5.932;2023-01-01T03:19:25;11.70;99.90
53653;DHT22;39553;52.954;5.932;2023-01-01T03:22:02;11.50;99.90
53653;DHT22;39553;52.954;5.932;2023-01-01T03:27:24;11.30;99.90
53653;DHT22;39553;52.954;5.932;2023-01-01T03:29:50;11.00;99.90
53653;DHT22;39553;52.954;5.932;2023-01-01T03:32:22;10.70;99.90
53653;DHT22;39553;52.954;5.932;2023-01-01T03:35:10;10.50;99.90
53653;DHT22;39553;52.954;5.932;2023-01-01T03:37:36;10.40;99.90
53653;DHT22;39553;52.954;5.932;2023-01-01T03:40:02;10.50;99.90
53653;DHT22;39553;52.954;5.932;2023-01-01T03:42:36;10.50;99.90
53653;DHT22;39553;52.954;5.932;2023-01-01T03:45:08;10.60;99.90
53653;DHT22;39553;52.954;5.932;2023-01-01T03:47:35;10.70;99.90
53653;DHT22;39553;52.954;5.932;2023-01-01T03:50:02;10.70;99.90
53653;DHT22;39553;52.954;5.932;2023-01-01T03:55:27;10.70;99.90
53653;DHT22;39553;52.954;5.932;2023-01-01T04:01:03;10.70;99.90
53653;DHT22;39553;52.954;5.932;2023-01-01T04:03:33;10.70;99.90
53653;DHT22;39553;52.954;5.932;2023-01-01T04:06:00;10.60;99.90
53653;DHT22;39553;52.954;5.932;2023-01-01T04:08:27;10.60;99.90
53653;DHT22;39553;52.954;5.932;2023-01-01T04:10:56;10.60;99.90
53653;DHT22;39553;52.954;5.932;2023-01-01T04:13:23;10.50;99.90
53653;DHT22;39553;52.954;5.932;2023-01-01T04:15:49;10.50;99.90
53653;DHT22;39553;52.954;5.932;2023-01-01T04:18:15;10.40;99.90
53653;DHT22;39553;52.954;5.932;2023-01-01T04:20:40;10.60;99.90
53653;DHT22;39553;52.954;5.932;2023-01-01T04:23:06;10.40;99.90
53653;DHT22;39553;52.954;5.932;2023-01-01T04:25:32;10.40;99.90
53653;DHT22;39553;52.954;5.932;2023-01-01T04:27:58;10.50;99.90
53653;DHT22;39553;52.954;5.932;2023-01-01T04:30:24;10.50;99.90
53653;DHT22;39553;52.954;5.932;2023-01-01T04:32:51;10.50;99.90
53653;DHT22;39553;52.954;5.932;2023-01-01T04:35:16;10.50;99.90
53653;DHT22;39553;52.954;5.932;2023-01-01T04:37:43;10.50;99.90
53653;DHT22;39553;52.954;5.932;2023-01-01T04:40:11;10.40;99.90
53653;DHT22;39553;52.954;5.932;2023-01-01T04:42:37;10.50;99.90
53653;DHT22;39553;52.954;5.932;2023-01-01T04:45:04;10.50;99.90
53653;DHT22;39553;52.954;5.932;2023-01-01T04:47:29;10.60;99.90
53653;DHT22;39553;52.954;5.932;2023-01-01T04:49:55;10.60;99.90
53653;DHT22;39553;52.954;5.932;2023-01-01T04:52:21;10.60;99.90
53653;DHT22;39553;52.954;5.932;2023-01-01T04:54:47;10.60;99.90
53653;DHT22;39553;52.954;5.932;2023-01-01T04:57:13;10.70;99.90
53653;DHT22;39553;52.954;5.932;2023-01-01T04:59:38;10.70;99.90
53653;DHT22;39553;52.954;5.932;2023-01-01T05:02:05;10.80;99.90
53653;DHT22;39553;52.954;5.932;2023-01-01T05:04:31;10.90;99.90
53653;DHT22;39553;52.954;5.932;2023-01-01T05:06:57;11.00;99.90
53653;DHT22;39553;52.954;5.932;2023-01-01T05:09:22;11.00;99.90
53653;DHT22;39553;52.954;5.932;2023-01-01T05:11:48;11.00;99.90
53653;DHT22;39553;52.954;5.932;2023-01-01T05:14:14;11.00;99.90
53653;DHT22;39553;52.954;5.932;2023-01-01T05:16:40;11.10;99.90
53653;DHT22;39553;52.954;5.932;2023-01-01T05:19:06;11.00;99.90
53653;DHT22;39553;52.954;5.932;2023-01-01T05:21:36;10.90;99.90
53653;DHT22;39553;52.954;5.932;2023-01-01T05:24:08;10.80;99.90
53653;DHT22;39553;52.954;5.932;2023-01-01T05:26:36;10.90;99.90
53653;DHT22;39553;52.954;5.932;2023-01-01T05:29:03;10.80;99.90
53653;DHT22;39553;52.954;5.932;2023-01-01T05:31:32;10.80;99.90
53653;DHT22;39553;52.954;5.932;2023-01-01T05:33:59;10.80;99.90
53653;DHT22;39553;52.954;5.932;2023-01-01T05:36:32;10.80;99.90
53653;DHT22;39553;52.954;5.932;2023-01-01T05:38:59;10.90;99.90
53653;DHT22;39553;52.954;5.932;2023-01-01T05:41:25;10.90;99.90
53653;DHT22;39553;52.954;5.932;2023-01-01T05:43:51;10.90;99.90
53653;DHT22;39553;52.954;5.932;2023-01-01T05:46:24;10.90;99.90
53653;DHT22;39553;52.954;5.932;2023-01-01T05:48:51;11.00;99.90
53653;DHT22;39553;52.954;5.932;2023-01-01T05:51:23;10.90;99.90
53653;DHT22;39553;52.954;5.932;2023-01-01T05:53:49;10.90;99.90
53653;DHT22;39553;52.954;5.932;2023-01-01T05:56:16;11.00;99.90
53653;DHT22;39553;52.954;5.932;2023-01-01T05:58:42;11.00;99.90
53653;DHT22;39553;52.954;5.932;2023-01-01T06:03:38;10.90;99.90
53653;DHT22;39553;52.954;5.932;2023-01-01T06:06:05;11.00;99.90
53653;DHT22;39553;52.954;5.932;2023-01-01T06:08:32;11.00;99.90
53653;DHT22;39553;52.954;5.932;2023-01-01T06:11:02;11.00;99.90
53653;DHT22;39553;52.954;5.932;2023-01-01T06:13:29;11.00;99.90
53653;DHT22;39553;52.954;5.932;2023-01-01T06:15:57;11.00;99.90
53653;DHT22;39553;52.954;5.932;2023-01-01T06:18:23;10.90;99.90
53653;DHT22;39553;52.954;5.932;2023-01-01T06:20:50;10.90;99.90
53653;DHT22;39553;52.954;5.932;2023-01-01T06:23:16;10.90;99.90
53653;DHT22;39553;52.954;5.932;2023-01-01T06:25:41;10.90;99.90
53653;DHT22;39553;52.954;5.932;2023-01-01T06:28:07;10.90;99.90
53653;DHT22;39553;52.954;5.932;2023-01-01T06:30:33;10.90;99.90
53653;DHT22;39553;52.954;5.932;2023-01-01T06:33:00;10.90;99.90
53653;DHT22;39553;52.954;5.932;2023-01-01T06:35:26;10.90;99.90
53653;DHT22;39553;52.954;5.932;2023-01-01T06:37:52;10.90;99.90
53653;DHT22;39553;52.954;5.932;2023-01-01T06:40:18;10.90;99.90
53653;DHT22;39553;52.954;5.932;2023-01-01T06:42:44;10.90;99.90
53653;DHT22;39553;52.954;5.932;2023-01-01T06:45:11;10.90;99.90
53653;DHT22;39553;52.954;5.932;2023-01-01T06:47:38;10.90;99.90
53653;DHT22;39553;52.954;5.932;2023-01-01T06:50:04;10.90;99.90
53653;DHT22;39553;52.954;5.932;2023-01-01T06:52:30;10.90;99.90
53653;DHT22;39553;52.954;5.932;2023-01-01T06:54:56;11.00;99.90
53653;DHT22;39553;52.954;5.932;2023-01-01T06:57:22;10.80;99.90
53653;DHT22;39553;52.954;5.932;2023-01-01T06:59:48;10.80;99.90
53653;DHT22;39553;52.954;5.932;2023-01-01T07:02:14;10.80;99.90
53653;DHT22;39553;52.954;5.932;2023-01-01T07:04:39;10.80;99.90
53653;DHT22;39553;52.954;5.932;2023-01-01T07:07:05;10.80;99.90
53653;DHT22;39553;52.954;5.932;2023-01-01T07:09:31;10.80;99.90
53653;DHT22;39553;52.954;5.932;2023-01-01T07:11:57;10.80;99.90
53653;DHT22;39553;52.954;5.932;2023-01-01T07:14:22;10.80;99.90
53653;DHT22;39553;52.954;5.932;2023-01-01T07:16:48;10.80;99.90
53653;DHT22;39553;52.954;5.932;2023-01-01T07:19:14;10.90;99.90
53653;DHT22;39553;52.954;5.932;2023-01-01T07:21:43;10.80;99.90
53653;DHT22;39553;52.954;5.932;2023-01-01T07:24:11;10.80;99.90
53653;DHT22;39553;52.954;5.932;2023-01-01T07:26:37;10.90;99.90
53653;DHT22;39553;52.954;5.932;2023-01-01T07:29:04;10.90;99.90
53653;DHT22;39553;52.954;5.932;2023-01-01T07:31:30;10.30;99.90
53653;DHT22;39553;52.954;5.932;2023-01-01T07:33:56;10.90;99.90
53653;DHT22;39553;52.954;5.932;2023-01-01T07:36:22;10.90;99.90
53653;DHT22;39553;52.954;5.932;2023-01-01T07:38:47;10.90;99.90
53653;DHT22;39553;52.954;5.932;2023-01-01T07:41:13;10.90;99.90
53653;DHT22;39553;52.954;5.932;2023-01-01T07:43:39;10.80;99.90
53653;DHT22;39553;52.954;5.932;2023-01-01T07:46:04;10.80;99.90
53653;DHT22;39553;52.954;5.932;2023-01-01T07:48:30;10.80;99.90
53653;DHT22;39553;52.954;5.932;2023-01-01T07:50:56;10.80;99.90
53653;DHT22;39553;52.954;5.932;2023-01-01T07:53:23;10.80;99.90
53653;DHT22;39553;52.954;5.932;2023-01-01T07:55:49;10.70;99.90
53653;DHT22;39553;52.954;5.932;2023-01-01T07:58:14;10.80;99.90
53653;DHT22;39553;52.954;5.932;2023-01-01T08:00:40;10.70;99.90
53653;DHT22;39553;52.954;5.932;2023-01-01T08:03:09;10.70;99.90
53653;DHT22;39553;52.954;5.932;2023-01-01T08:05:37;10.60;99.90
53653;DHT22;39553;52.954;5.932;2023-01-01T08:08:03;10.60;99.90
53653;DHT22;39553;52.954;5.932;2023-01-01T08:10:29;10.60;99.90
53653;DHT22;39553;52.954;5.932;2023-01-01T08:13:00;10.60;99.90
53653;DHT22;39553;52.954;5.932;2023-01-01T08:15:26;10.60;99.90
53653;DHT22;39553;52.954;5.932;2023-01-01T08:17:59;10.60;99.90
53653;DHT22;39553;52.954;5.932;2023-01-01T08:20:26;10.60;99.90
53653;DHT22;39553;52.954;5.932;2023-01-01T08:22:52;10.60;99.90
53653;DHT22;39553;52.954;5.932;2023-01-01T08:25:18;10.60;99.90
53653;DHT22;39553;52.954;5.932;2023-01-01T08:27:44;10.60;99.90
53653;DHT22;39553;52.954;5.932;2023-01-01T08:30:11;10.60;99.90
53653;DHT22;39553;52.954;5.932;2023-01-01T08:32:37;10.60;99.90
53653;DHT22;39553;52.954;5.932;2023-01-01T08:35:03;10.60;99.90
53653;DHT22;39553;52.954;5.932;2023-01-01T08:37:29;10.60;99.90
53653;DHT22;39553;52.954;5.932;2023-01-01T08:39:55;10.60;99.90
53653;DHT22;39553;52.954;5.932;2023-01-01T08:42:21;10.60;99.90
53653;DHT22;39553;52.954;5.932;2023-01-01T08:44:46;10.60;99.90
53653;DHT22;39553;52.954;5.932;2023-01-01T08:47:20;10.60;99.90
53653;DHT22;39553;52.954;5.932;2023-01-01T08:49:46;10.50;99.90
53653;DHT22;39553;52.954;5.932;2023-01-01T08:52:12;10.60;99.90
53653;DHT22;39553;52.954;5.932;2023-01-01T08:54:38;10.50;99.90
53653;DHT22;39553;52.954;5.932;2023-01-01T08:57:04;10.50;99.90
53653;DHT22;39553;52.954;5.932;2023-01-01T08:59:30;10.60;99.90
53653;DHT22;39553;52.954;5.932;2023-01-01T09:01:56;10.50;99.90
53653;DHT22;39553;52.954;5.932;2023-01-01T09:04:21;10.60;99.90
53653;DHT22;39553;52.954;5.932;2023-01-01T09:06:47;10.60;99.90
53653;DHT22;39553;52.954;5.932;2023-01-01T09:09:13;10.60;99.90
53653;DHT22;39553;52.954;5.932;2023-01-01T09:11:39;10.60;99.90
53653;DHT22;39553;52.954;5.932;2023-01-01T09:14:14;10.60;99.90
53653;DHT22;39553;52.954;5.932;2023-01-01T09:16:39;10.60;99.90
53653;DHT22;39553;52.954;5.932;2023-01-01T09:19:05;10.60;99.90
53653;DHT22;39553;52.954;5.932;2023-01-01T09:21:31;10.60;99.90
53653;DHT22;39553;52.954;5.932;2023-01-01T09:23:57;10.60;99.90
53653;DHT22;39553;52.954;5.932;2023-01-01T09:26:22;10.60;99.90
53653;DHT22;39553;52.954;5.932;2023-01-01T09:28:48;10.60;99.90
53653;DHT22;39553;52.954;5.932;2023-01-01T09:31:14;10.70;99.90
53653;DHT22;39553;52.954;5.932;2023-01-01T09:33:39;10.70;99.90
53653;DHT22;39553;52.954;5.932;2023-01-01T09:38:50;10.70;99.90
53653;DHT22;39553;52.954;5.932;2023-01-01T09:41:42;10.70;99.90
53653;DHT22;39553;52.954;5.932;2023-01-01T09:47:37;10.70;99.90
53653;DHT22;39553;52.954;5.932;2023-01-01T09:50:19;10.80;99.90
53653;DHT22;39553;52.954;5.932;2023-01-01T09:52:55;10.80;99.90
53653;DHT22;39553;52.954;5.932;2023-01-01T09:55:28;10.80;99.90
53653;DHT22;39553;52.954;5.932;2023-01-01T09:57:55;10.80;99.90
53653;DHT22;39553;52.954;5.932;2023-01-01T10:00:22;10.80;99.90
53653;DHT22;39553;52.954;5.932;2023-01-01T10:02:57;10.90;99.90
53653;DHT22;39553;52.954;5.932;2023-01-01T10:11:41;10.90;99.90
53653;DHT22;39553;52.954;5.932;2023-01-01T10:14:22;10.90;99.90
53653;DHT22;39553;52.954;5.932;2023-01-01T10:16:53;10.90;99.90
53653;DHT22;39553;52.954;5.932;2023-01-01T10:19:26;11.00;99.90
53653;DHT22;39553;52.954;5.932;2023-01-01T10:21:56;11.20;99.90
53653;DHT22;39553;52.954;5.932;2023-01-01T10:24:33;11.30;99.90
53653;DHT22;39553;52.954;5.932;2023-01-01T10:27:03;11.30;99.90
53653;DHT22;39553;52.954;5.932;2023-01-01T10:29:40;11.20;99.90
53653;DHT22;39553;52.954;5.932;2023-01-01T10:32:31;11.10;99.90
53653;DHT22;39553;52.954;5.932;2023-01-01T10:34:58;11.00;99.90
53653;DHT22;39553;52.954;5.932;2023-01-01T10:37:34;11.00;99.90
53653;DHT22;39553;52.954;5.932;2023-01-01T10:40:18;10.90;99.90
53653;DHT22;39553;52.954;5.932;2023-01-01T10:42:50;11.00;99.90
53653;DHT22;39553;52.954;5.932;2023-01-01T10:45:19;11.00;99.90
53653;DHT22;39553;52.954;5.932;2023-01-01T10:48:11;11.00;99.90
53653;DHT22;39553;52.954;5.932;2023-01-01T10:50:54;11.00;99.90
53653;DHT22;39553;52.954;5.932;2023-01-01T10:53:56;11.10;99.90
53653;DHT22;39553;52.954;5.932;2023-01-01T10:56:20;11.10;99.90
53653;DHT22;39553;52.954;5.932;2023-01-01T10:58:52;11.20;99.90
53653;DHT22;39553;52.954;5.932;2023-01-01T11:01:29;11.20;99.90
53653;DHT22;39553;52.954;5.932;2023-01-01T11:06:37;11.20;99.90
53653;DHT22;39553;52.954;5.932;2023-01-01T11:09:05;11.20;99.90
53653;DHT22;39553;52.954;5.932;2023-01-01T11:11:44;11.20;99.90
53653;DHT22;39553;52.954;5.932;2023-01-01T11:14:41;11.30;99.90
53653;DHT22;39553;52.954;5.932;2023-01-01T11:17:08;11.30;99.90
53653;DHT22;39553;52.954;5.932;2023-01-01T11:19:36;11.30;99.90
53653;DHT22;39553;52.954;5.932;2023-01-01T11:22:03;11.30;99.90
53653;DHT22;39553;52.954;5.932;2023-01-01T11:24:31;11.30;99.90
53653;DHT22;39553;52.954;5.932;2023-01-01T11:27:20;11.20;99.90
53653;DHT22;39553;52.954;5.932;2023-01-01T11:29:47;11.20;99.90
53653;DHT22;39553;52.954;5.932;2023-01-01T11:32:23;11.20;99.90
53653;DHT22;39553;52.954;5.932;2023-01-01T11:35:03;11.20;99.90
53653;DHT22;39553;52.954;5.932;2023-01-01T11:37:36;11.20;99.90
53653;DHT22;39553;52.954;5.932;2023-01-01T11:40:06;11.20;99.90
53653;DHT22;39553;52.954;5.932;2023-01-01T11:42:48;11.20;99.90
53653;DHT22;39553;52.954;5.932;2023-01-01T11:45:38;11.30;99.90
53653;DHT22;39553;52.954;5.932;2023-01-01T11:48:16;11.30;99.90
53653;DHT22;39553;52.954;5.932;2023-01-01T11:50:54;11.40;99.90
53653;DHT22;39553;52.954;5.932;2023-01-01T11:58:49;11.60;99.90
53653;DHT22;39553;52.954;5.932;2023-01-01T12:04:31;11.70;99.90
53653;DHT22;39553;52.954;5.932;2023-01-01T12:07:11;11.70;99.90
53653;DHT22;39553;52.954;5.932;2023-01-01T12:10:21;11.70;99.90
53653;DHT22;39553;52.954;5.932;2023-01-01T12:12:59;11.70;99.90
53653;DHT22;39553;52.954;5.932;2023-01-01T12:16:38;11.70;99.90
53653;DHT22;39553;52.954;5.932;2023-01-01T12:23:40;11.70;99.90
53653;DHT22;39553;52.954;5.932;2023-01-01T12:40:24;11.70;99.90
53653;DHT22;39553;52.954;5.932;2023-01-01T12:45:32;11.70;99.90
53653;DHT22;39553;52.954;5.932;2023-01-01T12:59:27;11.90;99.90
53653;DHT22;39553;52.954;5.932;2023-01-01T13:01:56;11.80;99.90
53653;DHT22;39553;52.954;5.932;2023-01-01T13:04:23;11.80;99.90
53653;DHT22;39553;52.954;5.932;2023-01-01T13:07:02;11.90;99.90
53653;DHT22;39553;52.954;5.932;2023-01-01T13:09:38;11.90;99.90
53653;DHT22;39553;52.954;5.932;2023-01-01T13:12:10;11.90;99.90
53653;DHT22;39553;52.954;5.932;2023-01-01T13:14:41;11.90;99.90
53653;DHT22;39553;52.954;5.932;2023-01-01T13:17:20;11.80;99.90
53653;DHT22;39553;52.954;5.932;2023-01-01T13:22:39;11.80;99.90
53653;DHT22;39553;52.954;5.932;2023-01-01T13:38:58;11.50;99.90
53653;DHT22;39553;52.954;5.932;2023-01-01T13:41:40;11.50;99.90
53653;DHT22;39553;52.954;5.932;2023-01-01T13:46:58;11.40;99.90
53653;DHT22;39553;52.954;5.932;2023-01-01T13:54:53;11.30;99.90
53653;DHT22;39553;52.954;5.932;2023-01-01T14:00:24;11.30;99.90
53653;DHT22;39553;52.954;5.932;2023-01-01T14:02:57;11.30;99.90
53653;DHT22;39553;52.954;5.932;2023-01-01T14:05:41;11.20;99.90
53653;DHT22;39553;52.954;5.932;2023-01-01T14:08:32;11.20;99.90
53653;DHT22;39553;52.954;5.932;2023-01-01T14:11:00;11.10;99.90
53653;DHT22;39553;52.954;5.932;2023-01-01T14:13:37;11.20;99.90
53653;DHT22;39553;52.954;5.932;2023-01-01T14:16:05;11.10;99.90
53653;DHT22;39553;52.954;5.932;2023-01-01T14:18:37;11.00;99.90
53653;DHT22;39553;52.954;5.932;2023-01-01T14:21:08;11.00;99.90
53653;DHT22;39553;52.954;5.932;2023-01-01T14:23:42;11.00;99.90
53653;DHT22;39553;52.954;5.932;2023-01-01T14:26:13;11.00;99.90
53653;DHT22;39553;52.954;5.932;2023-01-01T14:28:40;10.90;99.90
53653;DHT22;39553;52.954;5.932;2023-01-01T14:31:19;10.90;99.90
53653;DHT22;39553;52.954;5.932;2023-01-01T14:33:46;10.90;99.90
53653;DHT22;39553;52.954;5.932;2023-01-01T14:38:45;10.90;99.90
53653;DHT22;39553;52.954;5.932;2023-01-01T14:41:27;10.90;99.90
53653;DHT22;39553;52.954;5.932;2023-01-01T14:44:16;10.90;99.90
53653;DHT22;39553;52.954;5.932;2023-01-01T14:46:49;10.90;99.90
53653;DHT22;39553;52.954;5.932;2023-01-01T14:49:29;10.80;99.90
53653;DHT22;39553;52.954;5.932;2023-01-01T14:52:06;10.80;99.90
53653;DHT22;39553;52.954;5.932;2023-01-01T14:54:37;10.80;99.90
53653;DHT22;39553;52.954;5.932;2023-01-01T14:57:14;10.90;99.90
53653;DHT22;39553;52.954;5.932;2023-01-01T14:59:48;10.70;99.90
53653;DHT22;39553;52.954;5.932;2023-01-01T15:02:20;10.70;99.90
53653;DHT22;39553;52.954;5.932;2023-01-01T15:04:46;10.70;99.90
53653;DHT22;39553;52.954;5.932;2023-01-01T15:07:24;10.70;99.90
53653;DHT22;39553;52.954;5.932;2023-01-01T15:09:51;10.60;99.90
53653;DHT22;39553;52.954;5.932;2023-01-01T15:12:18;10.60;99.90
53653;DHT22;39553;52.954;5.932;2023-01-01T15:14:46;10.60;99.90
53653;DHT22;39553;52.954;5.932;2023-01-01T15:17:15;10.60;99.90
53653;DHT22;39553;52.954;5.932;2023-01-01T15:19:43;10.50;99.90
53653;DHT22;39553;52.954;5.932;2023-01-01T15:24:36;10.50;99.90
53653;DHT22;39553;52.954;5.932;2023-01-01T15:27:03;10.40;99.90
53653;DHT22;39553;52.954;5.932;2023-01-01T15:29:36;10.40;99.90
53653;DHT22;39553;52.954;5.932;2023-01-01T15:32:24;10.30;99.90
53653;DHT22;39553;52.954;5.932;2023-01-01T15:34:55;10.30;99.90
53653;DHT22;39553;52.954;5.932;2023-01-01T15:42:46;10.20;99.90
53653;DHT22;39553;52.954;5.932;2023-01-01T15:45:37;10.20;99.90
53653;DHT22;39553;52.954;5.932;2023-01-01T15:48:20;10.20;99.90
53653;DHT22;39553;52.954;5.932;2023-01-01T15:53:22;9.70;99.90
53653;DHT22;39553;52.954;5.932;2023-01-01T15:55:58;10.10;99.90
53653;DHT22;39553;52.954;5.932;2023-01-01T15:58:34;10.10;99.90
53653;DHT22;39553;52.954;5.932;2023-01-01T16:01:04;10.10;99.90
53653;DHT22;39553;52.954;5.932;2023-01-01T16:03:32;10.10;99.90
53653;DHT22;39553;52.954;5.932;2023-01-01T16:05:58;10.10;99.90
53653;DHT22;39553;52.954;5.932;2023-01-01T16:08:25;10.10;99.90
53653;DHT22;39553;52.954;5.932;2023-01-01T16:10:51;10.10;99.90
53653;DHT22;39553;52.954;5.932;2023-01-01T16:13:17;10.10;99.90
53653;DHT22;39553;52.954;5.932;2023-01-01T16:15:56;10.10;99.90
53653;DHT22;39553;52.954;5.932;2023-01-01T16:18:27;10.50;99.90
53653;DHT22;39553;52.954;5.932;2023-01-01T16:20:54;10.10;99.90
53653;DHT22;39553;52.954;5.932;2023-01-01T16:23:19;10.20;99.90
53653;DHT22;39553;52.954;5.932;2023-01-01T16:25:45;10.20;99.90
53653;DHT22;39553;52.954;5.932;2023-01-01T16:28:12;10.20;99.90
53653;DHT22;39553;52.954;5.932;2023-01-01T16:30:38;10.20;99.90
53653;DHT22;39553;52.954;5.932;2023-01-01T16:33:11;10.20;99.90
53653;DHT22;39553;52.954;5.932;2023-01-01T16:35:38;10.20;99.90
53653;DHT22;39553;52.954;5.932;2023-01-01T16:38:06;10.20;99.90
53653;DHT22;39553;52.954;5.932;2023-01-01T16:40:32;10.20;99.90
53653;DHT22;39553;52.954;5.932;2023-01-01T16:42:58;10.10;99.90
53653;DHT22;39553;52.954;5.932;2023-01-01T16:45:23;10.10;99.90
53653;DHT22;39553;52.954;5.932;2023-01-01T16:47:49;10.10;99.90
53653;DHT22;39553;52.954;5.932;2023-01-01T16:50:15;10.20;99.90
53653;DHT22;39553;52.954;5.932;2023-01-01T16:52:41;10.20;99.90
53653;DHT22;39553;52.954;5.932;2023-01-01T16:55:07;10.20;99.90
53653;DHT22;39553;52.954;5.932;2023-01-01T16:57:33;10.30;99.90
53653;DHT22;39553;52.954;5.932;2023-01-01T16:59:58;10.30;99.90
53653;DHT22;39553;52.954;5.932;2023-01-01T17:02:24;10.30;99.90
53653;DHT22;39553;52.954;5.932;2023-01-01T17:04:50;10.30;99.90
53653;DHT22;39553;52.954;5.932;2023-01-01T17:07:16;10.30;99.90
53653;DHT22;39553;52.954;5.932;2023-01-01T17:09:42;10.40;99.90
53653;DHT22;39553;52.954;5.932;2023-01-01T17:12:07;10.40;99.90
53653;DHT22;39553;52.954;5.932;2023-01-01T17:14:33;10.40;99.90
53653;DHT22;39553;52.954;5.932;2023-01-01T17:16:59;10.40;99.90
53653;DHT22;39553;52.954;5.932;2023-01-01T17:19:25;10.40;99.90
53653;DHT22;39553;52.954;5.932;2023-01-01T17:21:51;10.50;99.90
53653;DHT22;39553;52.954;5.932;2023-01-01T17:24:18;10.60;99.90
53653;DHT22;39553;52.954;5.932;2023-01-01T17:26:44;10.40;99.90
53653;DHT22;39553;52.954;5.932;2023-01-01T17:29:10;10.40;99.90
53653;DHT22;39553;52.954;5.932;2023-01-01T17:31:36;10.50;99.90
53653;DHT22;39553;52.954;5.932;2023-01-01T17:34:03;10.40;99.90
53653;DHT22;39553;52.954;5.932;2023-01-01T17:36:29;10.40;99.90
53653;DHT22;39553;52.954;5.932;2023-01-01T17:38:55;10.50;99.90
53653;DHT22;39553;52.954;5.932;2023-01-01T17:41:22;10.50;99.90
53653;DHT22;39553;52.954;5.932;2023-01-01T17:43:49;10.50;99.90
53653;DHT22;39553;52.954;5.932;2023-01-01T17:46:26;10.50;99.90
53653;DHT22;39553;52.954;5.932;2023-01-01T17:48:58;10.50;99.90
53653;DHT22;39553;52.954;5.932;2023-01-01T17:51:24;10.50;99.90
53653;DHT22;39553;52.954;5.932;2023-01-01T17:53:51;10.50;99.90
53653;DHT22;39553;52.954;5.932;2023-01-01T17:56:18;10.50;99.90
53653;DHT22;39553;52.954;5.932;2023-01-01T17:58:45;10.40;99.90
53653;DHT22;39553;52.954;5.932;2023-01-01T18:03:38;10.40;99.90
53653;DHT22;39553;52.954;5.932;2023-01-01T18:06:05;10.30;99.90
53653;DHT22;39553;52.954;5.932;2023-01-01T18:08:31;10.30;99.90